Aeroporto :
LOGIN :

Iscrizione | Disclaimer

   EN    FR    IT 

 










Sommario :    VFR   VFR Marginale   IFR   IFR Intensivo   IFR Molto Intensivo
Visibilità : 
Base nubi : 
>= 8 km
>= 3000ft
5 / 8 km
1000 / 3000 ft
1500m / 5 km
500 / 1000 ft
800 / 1500m
200 / 500 ft
< 800m
< 200 ft
Simboli :   Temporali  Nebbia  Neve Forte  Precipitazioni Forti  Vento > 20 kt
SIGMETs :   Varie  Temporali  Ghiacco  Turbolenza  Onda orograficha  Ceneri Vulcaniche






- Altitudine del aeroporto : 681 ft
- Codice IATA : LBA


EGNM - Leeds Bradford

ULTIMO METAR :
  • 092120Z 27005KT CAVOK 00/M01 Q1021

METARs OBSOLETI :
  • 092050Z 25006KT CAVOK 01/M01 Q1021
  • 092020Z 26008KT CAVOK 01/M00 Q1021
  • 091950Z 26008KT CAVOK 01/M01 Q1020
  • 091920Z 27005KT CAVOK 01/M01 Q1020
  • 091850Z 26004KT 230V290 CAVOK 01/M01 Q1019

TAF TAF EGNM
Valido dal 09 a 18 ore il 10 a 18 ore UTC


091704Z 0918/1018 24005KT 9999 SCT025
BECMG 1002/1005 17010KT
BECMG 1006/1009 18018G30KT
TEMPO 1008/1016 19025G40KT 5000 -RA BKN011
PROB30
TEMPO 1008/1016 4000 RA BKN007
BECMG 1016/1018 25022G35KT
TEMPO 1016/1018 6000 RA
PROB40
TEMPO 1016/1018 3000 +RA BKN010
ATIS : +44 113 250 9696 (x2489)



MetMap, La meteo Aeronautica in un colpo d'occhio ! - Copyright ORBIFLY Dicembre 2007 - Disclaimer

ORBIFLY MET'MAP TEAM :

Programmazione e sviluppo : Alexandra Zaïnal
Concezione : Baudouin d'Aumeries
Aiuto per la programmazione : Marc-Olivier Méhu
Supporto tecnico e logistico : Manuel Goepfert
Aiuto per la traduzione : Arnaldo La Scala

Contatto : metmap@orbifly.com




FONTI E CREDITI :

   NOAA